sensor_id;sensor_type;location;lat;lon;timestamp;P1;durP1;ratioP1;P2;durP2;ratioP2
36833;SDS011;48003;52.084;5.224;2023-05-02T00:02:31;30.8;;;18.2;;
36833;SDS011;48003;52.084;5.224;2023-05-02T00:04:08;28.3;;;16.9;;
36833;SDS011;48003;52.084;5.224;2023-05-02T00:05:44;27.1;;;17.8;;
36833;SDS011;48003;52.084;5.224;2023-05-02T00:08:56;28.6;;;17.8;;
36833;SDS011;48003;52.084;5.224;2023-05-02T00:10:33;27.1;;;17.61;;
36833;SDS011;48003;52.084;5.224;2023-05-02T00:12:09;29.3;;;18.91;;
36833;SDS011;48003;52.084;5.224;2023-05-02T00:15:21;30.1;;;18.91;;
36833;SDS011;48003;52.084;5.224;2023-05-02T00:16:57;31.1;;;18.11;;
36833;SDS011;48003;52.084;5.224;2023-05-02T00:18:34;30.4;;;17.61;;
36833;SDS011;48003;52.084;5.224;2023-05-02T00:20:10;26.5;;;17.5;;
36833;SDS011;48003;52.084;5.224;2023-05-02T00:23:23;29.8;;;18.8;;
36833;SDS011;48003;52.084;5.224;2023-05-02T00:25:00;29.7;;;17.7;;
36833;SDS011;48003;52.084;5.224;2023-05-02T00:29:49;29.1;;;19.0;;
36833;SDS011;48003;52.084;5.224;2023-05-02T00:31:25;31.5;;;19.0;;
36833;SDS011;48003;52.084;5.224;2023-05-02T00:33:01;31.0;;;17.8;;
36833;SDS011;48003;52.084;5.224;2023-05-02T00:36:13;30.9;;;18.61;;
36833;SDS011;48003;52.084;5.224;2023-05-02T00:37:50;28.0;;;18.41;;
36833;SDS011;48003;52.084;5.224;2023-05-02T00:39:27;30.8;;;17.8;;
36833;SDS011;48003;52.084;5.224;2023-05-02T00:41:03;28.4;;;17.61;;
36833;SDS011;48003;52.084;5.224;2023-05-02T00:44:15;27.5;;;18.2;;
36833;SDS011;48003;52.084;5.224;2023-05-02T00:45:51;31.0;;;17.5;;
36833;SDS011;48003;52.084;5.224;2023-05-02T00:47:28;25.9;;;17.3;;
36833;SDS011;48003;52.084;5.224;2023-05-02T00:50:41;23.6;;;15.7;;
36833;SDS011;48003;52.084;5.224;2023-05-02T00:52:18;22.4;;;15.4;;
36833;SDS011;48003;52.084;5.224;2023-05-02T00:53:55;25.2;;;15.5;;
36833;SDS011;48003;52.084;5.224;2023-05-02T00:57:07;21.4;;;13.0;;
36833;SDS011;48003;52.084;5.224;2023-05-02T00:58:43;20.6;;;12.4;;
36833;SDS011;48003;52.084;5.224;2023-05-02T01:00:21;17.61;;;10.8;;
36833;SDS011;48003;52.084;5.224;2023-05-02T01:02:09;18.8;;;11.0;;
36833;SDS011;48003;52.084;5.224;2023-05-02T01:04:07;18.11;;;10.6;;
36833;SDS011;48003;52.084;5.224;2023-05-02T01:08:00;16.7;;;9.6;;
36833;SDS011;48003;52.084;5.224;2023-05-02T01:09:50;18.0;;;9.5;;
36833;SDS011;48003;52.084;5.224;2023-05-02T01:11:38;17.2;;;9.1;;
36833;SDS011;48003;52.084;5.224;2023-05-02T01:13:30;14.5;;;8.31;;
36833;SDS011;48003;52.084;5.224;2023-05-02T01:15:10;14.5;;;8.31;;
36833;SDS011;48003;52.084;5.224;2023-05-02T01:16:51;14.4;;;8.0;;
36833;SDS011;48003;52.084;5.224;2023-05-02T01:20:11;15.0;;;8.2;;
36833;SDS011;48003;52.084;5.224;2023-05-02T01:21:51;16.7;;;8.5;;
36833;SDS011;48003;52.084;5.224;2023-05-02T01:23:31;13.7;;;7.8;;
36833;SDS011;48003;52.084;5.224;2023-05-02T01:25:18;13.2;;;7.3;;
36833;SDS011;48003;52.084;5.224;2023-05-02T01:27:06;15.9;;;7.7;;
36833;SDS011;48003;52.084;5.224;2023-05-02T01:30:33;15.4;;;6.4;;
36833;SDS011;48003;52.084;5.224;2023-05-02T01:32:13;13.9;;;5.5;;
36833;SDS011;48003;52.084;5.224;2023-05-02T01:33:50;15.8;;;4.8;;
36833;SDS011;48003;52.084;5.224;2023-05-02T01:35:29;13.2;;;4.41;;
36833;SDS011;48003;52.084;5.224;2023-05-02T01:38:48;9.4;;;4.2;;
36833;SDS011;48003;52.084;5.224;2023-05-02T01:40:26;11.1;;;4.1;;
36833;SDS011;48003;52.084;5.224;2023-05-02T01:42:03;10.6;;;3.8;;
36833;SDS011;48003;52.084;5.224;2023-05-02T01:45:17;9.31;;;3.2;;
36833;SDS011;48003;52.084;5.224;2023-05-02T01:46:56;11.1;;;3.2;;
36833;SDS011;48003;52.084;5.224;2023-05-02T01:48:35;8.5;;;2.6;;
36833;SDS011;48003;52.084;5.224;2023-05-02T01:50:12;9.71;;;3.1;;
36833;SDS011;48003;52.084;5.224;2023-05-02T01:53:31;9.81;;;3.0;;
36833;SDS011;48003;52.084;5.224;2023-05-02T01:55:11;7.9;;;2.7;;
36833;SDS011;48003;52.084;5.224;2023-05-02T01:56:50;10.21;;;2.9;;
36833;SDS011;48003;52.084;5.224;2023-05-02T01:58:27;11.3;;;3.3;;
36833;SDS011;48003;52.084;5.224;2023-05-02T02:01:45;12.5;;;3.2;;
36833;SDS011;48003;52.084;5.224;2023-05-02T02:03:25;11.7;;;3.2;;
36833;SDS011;48003;52.084;5.224;2023-05-02T02:05:03;8.5;;;3.0;;
36833;SDS011;48003;52.084;5.224;2023-05-02T02:08:33;11.8;;;3.1;;
36833;SDS011;48003;52.084;5.224;2023-05-02T02:10:09;12.5;;;3.2;;
36833;SDS011;48003;52.084;5.224;2023-05-02T02:11:46;11.9;;;3.0;;
36833;SDS011;48003;52.084;5.224;2023-05-02T02:13:29;10.8;;;3.0;;
36833;SDS011;48003;52.084;5.224;2023-05-02T02:15:15;12.5;;;3.2;;
36833;SDS011;48003;52.084;5.224;2023-05-02T02:18:36;9.71;;;2.4;;
36833;SDS011;48003;52.084;5.224;2023-05-02T02:20:14;10.0;;;2.5;;
36833;SDS011;48003;52.084;5.224;2023-05-02T02:21:51;11.4;;;2.4;;
36833;SDS011;48003;52.084;5.224;2023-05-02T02:25:10;7.6;;;1.7;;
36833;SDS011;48003;52.084;5.224;2023-05-02T02:26:50;7.0;;;1.7;;
36833;SDS011;48003;52.084;5.224;2023-05-02T02:28:26;6.3;;;1.9;;
36833;SDS011;48003;52.084;5.224;2023-05-02T02:30:02;5.6;;;1.8;;
36833;SDS011;48003;52.084;5.224;2023-05-02T02:33:15;6.2;;;1.6;;
36833;SDS011;48003;52.084;5.224;2023-05-02T02:34:52;9.9;;;1.9;;
36833;SDS011;48003;52.084;5.224;2023-05-02T02:36:30;7.8;;;1.4;;
36833;SDS011;48003;52.084;5.224;2023-05-02T02:38:13;6.4;;;1.5;;
36833;SDS011;48003;52.084;5.224;2023-05-02T02:41:46;6.9;;;1.9;;
36833;SDS011;48003;52.084;5.224;2023-05-02T02:43:32;6.9;;;1.6;;
36833;SDS011;48003;52.084;5.224;2023-05-02T02:45:17;6.8;;;1.6;;
36833;SDS011;48003;52.084;5.224;2023-05-02T02:47:05;7.0;;;1.5;;
36833;SDS011;48003;52.084;5.224;2023-05-02T02:49:03;5.9;;;1.7;;
36833;SDS011;48003;52.084;5.224;2023-05-02T02:50:53;7.1;;;1.6;;
36833;SDS011;48003;52.084;5.224;2023-05-02T02:54:28;6.9;;;1.7;;
36833;SDS011;48003;52.084;5.224;2023-05-02T02:56:11;5.7;;;1.5;;
36833;SDS011;48003;52.084;5.224;2023-05-02T02:57:54;9.5;;;2.0;;
36833;SDS011;48003;52.084;5.224;2023-05-02T02:59:36;5.11;;;1.3;;
36833;SDS011;48003;52.084;5.224;2023-05-02T03:01:21;7.4;;;1.3;;
36833;SDS011;48003;52.084;5.224;2023-05-02T03:04:38;6.0;;;1.5;;
36833;SDS011;48003;52.084;5.224;2023-05-02T03:06:16;6.2;;;1.5;;
36833;SDS011;48003;52.084;5.224;2023-05-02T03:11:15;9.4;;;2.0;;
36833;SDS011;48003;52.084;5.224;2023-05-02T03:12:51;5.3;;;1.5;;
36833;SDS011;48003;52.084;5.224;2023-05-02T03:14:27;5.11;;;1.6;;
36833;SDS011;48003;52.084;5.224;2023-05-02T03:16:35;9.6;;;1.8;;
36833;SDS011;48003;52.084;5.224;2023-05-02T03:18:23;9.6;;;1.7;;
36833;SDS011;48003;52.084;5.224;2023-05-02T03:21:35;6.5;;;1.5;;
36833;SDS011;48003;52.084;5.224;2023-05-02T03:23:11;6.1;;;1.7;;
36833;SDS011;48003;52.084;5.224;2023-05-02T03:24:47;7.5;;;1.2;;
36833;SDS011;48003;52.084;5.224;2023-05-02T03:26:24;6.9;;;1.5;;
36833;SDS011;48003;52.084;5.224;2023-05-02T03:29:36;6.0;;;1.6;;
36833;SDS011;48003;52.084;5.224;2023-05-02T03:31:12;7.1;;;1.6;;
36833;SDS011;48003;52.084;5.224;2023-05-02T03:32:50;9.31;;;1.6;;
36833;SDS011;48003;52.084;5.224;2023-05-02T03:36:03;7.5;;;1.6;;
36833;SDS011;48003;52.084;5.224;2023-05-02T03:37:39;9.9;;;1.8;;
36833;SDS011;48003;52.084;5.224;2023-05-02T03:39:15;8.0;;;1.8;;
36833;SDS011;48003;52.084;5.224;2023-05-02T03:42:27;5.2;;;1.5;;
36833;SDS011;48003;52.084;5.224;2023-05-02T03:44:03;8.81;;;1.8;;
36833;SDS011;48003;52.084;5.224;2023-05-02T03:45:39;7.5;;;1.7;;
36833;SDS011;48003;52.084;5.224;2023-05-02T03:47:16;7.1;;;1.6;;
36833;SDS011;48003;52.084;5.224;2023-05-02T03:50:28;6.6;;;1.8;;
36833;SDS011;48003;52.084;5.224;2023-05-02T03:52:04;6.4;;;1.6;;
36833;SDS011;48003;52.084;5.224;2023-05-02T03:53:40;9.6;;;1.6;;
36833;SDS011;48003;52.084;5.224;2023-05-02T03:56:53;6.0;;;1.6;;
36833;SDS011;48003;52.084;5.224;2023-05-02T03:58:29;8.71;;;1.7;;
36833;SDS011;48003;52.084;5.224;2023-05-02T04:00:06;9.71;;;1.6;;
36833;SDS011;48003;52.084;5.224;2023-05-02T04:03:20;7.7;;;1.5;;
36833;SDS011;48003;52.084;5.224;2023-05-02T04:04:57;8.9;;;2.0;;
36833;SDS011;48003;52.084;5.224;2023-05-02T04:06:33;5.11;;;1.3;;
36833;SDS011;48003;52.084;5.224;2023-05-02T04:08:08;9.4;;;1.9;;
36833;SDS011;48003;52.084;5.224;2023-05-02T04:11:21;9.6;;;2.1;;
36833;SDS011;48003;52.084;5.224;2023-05-02T04:12:57;4.8;;;1.4;;
36833;SDS011;48003;52.084;5.224;2023-05-02T04:14:33;8.81;;;1.8;;
36833;SDS011;48003;52.084;5.224;2023-05-02T04:17:45;8.81;;;1.8;;
36833;SDS011;48003;52.084;5.224;2023-05-02T04:19:21;7.4;;;1.8;;
36833;SDS011;48003;52.084;5.224;2023-05-02T04:20:58;11.7;;;2.0;;
36833;SDS011;48003;52.084;5.224;2023-05-02T04:24:10;6.0;;;1.4;;
36833;SDS011;48003;52.084;5.224;2023-05-02T04:25:50;6.2;;;1.6;;
36833;SDS011;48003;52.084;5.224;2023-05-02T04:27:27;8.71;;;1.8;;
36833;SDS011;48003;52.084;5.224;2023-05-02T04:29:04;8.4;;;2.0;;
36833;SDS011;48003;52.084;5.224;2023-05-02T04:32:16;9.5;;;1.8;;
36833;SDS011;48003;52.084;5.224;2023-05-02T04:33:52;10.3;;;2.1;;
36833;SDS011;48003;52.084;5.224;2023-05-02T04:35:28;7.7;;;1.9;;
36833;SDS011;48003;52.084;5.224;2023-05-02T04:38:41;7.4;;;1.9;;
36833;SDS011;48003;52.084;5.224;2023-05-02T04:40:17;9.6;;;2.0;;
36833;SDS011;48003;52.084;5.224;2023-05-02T04:41:53;7.2;;;1.5;;
36833;SDS011;48003;52.084;5.224;2023-05-02T04:45:06;7.3;;;2.1;;
36833;SDS011;48003;52.084;5.224;2023-05-02T04:46:42;9.6;;;2.1;;
36833;SDS011;48003;52.084;5.224;2023-05-02T04:48:19;6.4;;;1.9;;
36833;SDS011;48003;52.084;5.224;2023-05-02T04:51:31;8.2;;;1.8;;
36833;SDS011;48003;52.084;5.224;2023-05-02T04:53:07;5.7;;;1.6;;
36833;SDS011;48003;52.084;5.224;2023-05-02T04:54:43;8.4;;;1.9;;
36833;SDS011;48003;52.084;5.224;2023-05-02T04:56:19;7.1;;;1.9;;
36833;SDS011;48003;52.084;5.224;2023-05-02T04:59:33;12.0;;;2.21;;
36833;SDS011;48003;52.084;5.224;2023-05-02T05:01:12;9.21;;;2.31;;
36833;SDS011;48003;52.084;5.224;2023-05-02T05:02:48;13.7;;;2.4;;
36833;SDS011;48003;52.084;5.224;2023-05-02T05:06:00;11.1;;;2.31;;
36833;SDS011;48003;52.084;5.224;2023-05-02T05:07:37;12.8;;;2.5;;
36833;SDS011;48003;52.084;5.224;2023-05-02T05:09:13;10.0;;;2.21;;
36833;SDS011;48003;52.084;5.224;2023-05-02T05:12:26;9.31;;;2.31;;
36833;SDS011;48003;52.084;5.224;2023-05-02T05:14:02;8.71;;;2.7;;
36833;SDS011;48003;52.084;5.224;2023-05-02T05:15:38;10.7;;;2.8;;
36833;SDS011;48003;52.084;5.224;2023-05-02T05:17:15;8.9;;;2.31;;
36833;SDS011;48003;52.084;5.224;2023-05-02T05:20:28;10.9;;;2.4;;
36833;SDS011;48003;52.084;5.224;2023-05-02T05:22:04;10.21;;;2.4;;
36833;SDS011;48003;52.084;5.224;2023-05-02T05:23:40;9.0;;;2.4;;
36833;SDS011;48003;52.084;5.224;2023-05-02T05:26:53;12.7;;;2.9;;
36833;SDS011;48003;52.084;5.224;2023-05-02T05:28:29;12.5;;;2.6;;
36833;SDS011;48003;52.084;5.224;2023-05-02T05:30:05;11.8;;;2.4;;
36833;SDS011;48003;52.084;5.224;2023-05-02T05:33:18;11.0;;;3.0;;
36833;SDS011;48003;52.084;5.224;2023-05-02T05:34:55;11.0;;;2.4;;
36833;SDS011;48003;52.084;5.224;2023-05-02T05:36:31;9.71;;;2.4;;
36833;SDS011;48003;52.084;5.224;2023-05-02T05:38:07;13.4;;;2.7;;
36833;SDS011;48003;52.084;5.224;2023-05-02T05:41:20;12.6;;;2.5;;
36833;SDS011;48003;52.084;5.224;2023-05-02T05:44:32;10.1;;;2.8;;
36833;SDS011;48003;52.084;5.224;2023-05-02T05:47:45;13.1;;;3.0;;
36833;SDS011;48003;52.084;5.224;2023-05-02T05:49:21;13.1;;;3.3;;
36833;SDS011;48003;52.084;5.224;2023-05-02T05:50:57;11.7;;;3.1;;
36833;SDS011;48003;52.084;5.224;2023-05-02T05:54:15;11.6;;;2.8;;
36833;SDS011;48003;52.084;5.224;2023-05-02T05:55:52;12.3;;;3.1;;
36833;SDS011;48003;52.084;5.224;2023-05-02T05:57:28;10.7;;;3.0;;
36833;SDS011;48003;52.084;5.224;2023-05-02T05:59:04;10.6;;;2.21;;
36833;SDS011;48003;52.084;5.224;2023-05-02T06:02:17;11.4;;;2.4;;
36833;SDS011;48003;52.084;5.224;2023-05-02T06:03:53;12.2;;;2.8;;
36833;SDS011;48003;52.084;5.224;2023-05-02T06:05:29;14.1;;;2.8;;
36833;SDS011;48003;52.084;5.224;2023-05-02T06:08:42;10.8;;;2.5;;
36833;SDS011;48003;52.084;5.224;2023-05-02T06:10:18;13.3;;;3.0;;
36833;SDS011;48003;52.084;5.224;2023-05-02T06:11:54;14.9;;;2.4;;
36833;SDS011;48003;52.084;5.224;2023-05-02T06:15:07;14.4;;;2.5;;
36833;SDS011;48003;52.084;5.224;2023-05-02T06:16:43;11.4;;;2.31;;
36833;SDS011;48003;52.084;5.224;2023-05-02T06:18:19;12.8;;;2.6;;
36833;SDS011;48003;52.084;5.224;2023-05-02T06:19:56;12.9;;;2.8;;
36833;SDS011;48003;52.084;5.224;2023-05-02T06:23:08;13.1;;;2.9;;
36833;SDS011;48003;52.084;5.224;2023-05-02T06:24:44;9.31;;;2.4;;
36833;SDS011;48003;52.084;5.224;2023-05-02T06:26:20;10.1;;;2.21;;
36833;SDS011;48003;52.084;5.224;2023-05-02T06:29:32;11.1;;;2.21;;
36833;SDS011;48003;52.084;5.224;2023-05-02T06:31:09;11.0;;;2.31;;
36833;SDS011;48003;52.084;5.224;2023-05-02T06:32:45;11.2;;;2.31;;
36833;SDS011;48003;52.084;5.224;2023-05-02T06:35:57;10.7;;;2.21;;
36833;SDS011;48003;52.084;5.224;2023-05-02T06:37:33;10.4;;;2.0;;
36833;SDS011;48003;52.084;5.224;2023-05-02T06:39:09;11.4;;;2.21;;
36833;SDS011;48003;52.084;5.224;2023-05-02T06:42:23;10.1;;;2.1;;
36833;SDS011;48003;52.084;5.224;2023-05-02T06:43:59;9.21;;;1.9;;
36833;SDS011;48003;52.084;5.224;2023-05-02T06:45:35;9.1;;;1.9;;
36833;SDS011;48003;52.084;5.224;2023-05-02T06:47:11;10.21;;;2.21;;
36833;SDS011;48003;52.084;5.224;2023-05-02T06:50:24;6.3;;;1.7;;
36833;SDS011;48003;52.084;5.224;2023-05-02T06:52:00;9.1;;;1.6;;
36833;SDS011;48003;52.084;5.224;2023-05-02T06:56:48;8.4;;;1.9;;
36833;SDS011;48003;52.084;5.224;2023-05-02T06:58:25;6.1;;;1.9;;
36833;SDS011;48003;52.084;5.224;2023-05-02T07:00:00;11.8;;;3.5;;
36833;SDS011;48003;52.084;5.224;2023-05-02T07:03:13;8.1;;;2.9;;
36833;SDS011;48003;52.084;5.224;2023-05-02T07:04:49;10.0;;;2.4;;
36833;SDS011;48003;52.084;5.224;2023-05-02T07:06:25;7.7;;;1.8;;
36833;SDS011;48003;52.084;5.224;2023-05-02T07:09:39;10.4;;;2.4;;
36833;SDS011;48003;52.084;5.224;2023-05-02T07:11:15;6.6;;;1.8;;
36833;SDS011;48003;52.084;5.224;2023-05-02T07:12:51;6.1;;;1.9;;
36833;SDS011;48003;52.084;5.224;2023-05-02T07:14:27;11.1;;;2.0;;
36833;SDS011;48003;52.084;5.224;2023-05-02T07:17:43;10.1;;;1.9;;
36833;SDS011;48003;52.084;5.224;2023-05-02T07:19:18;9.4;;;2.1;;
36833;SDS011;48003;52.084;5.224;2023-05-02T07:20:55;11.1;;;2.4;;
36833;SDS011;48003;52.084;5.224;2023-05-02T07:24:07;9.9;;;2.4;;
36833;SDS011;48003;52.084;5.224;2023-05-02T07:25:43;8.81;;;2.31;;
36833;SDS011;48003;52.084;5.224;2023-05-02T07:27:19;8.9;;;2.31;;
36833;SDS011;48003;52.084;5.224;2023-05-02T07:30:32;9.31;;;2.0;;
36833;SDS011;48003;52.084;5.224;2023-05-02T07:32:08;10.5;;;2.21;;
36833;SDS011;48003;52.084;5.224;2023-05-02T07:33:44;10.7;;;2.1;;
36833;SDS011;48003;52.084;5.224;2023-05-02T07:35:20;6.9;;;2.31;;
36833;SDS011;48003;52.084;5.224;2023-05-02T07:38:33;9.31;;;2.0;;
36833;SDS011;48003;52.084;5.224;2023-05-02T07:40:10;8.9;;;1.9;;
36833;SDS011;48003;52.084;5.224;2023-05-02T07:41:46;8.2;;;2.31;;
36833;SDS011;48003;52.084;5.224;2023-05-02T07:44:58;8.0;;;2.21;;
36833;SDS011;48003;52.084;5.224;2023-05-02T07:46:34;7.4;;;1.9;;
36833;SDS011;48003;52.084;5.224;2023-05-02T07:48:11;8.81;;;2.0;;
36833;SDS011;48003;52.084;5.224;2023-05-02T07:51:25;9.6;;;1.9;;
36833;SDS011;48003;52.084;5.224;2023-05-02T07:53:01;7.5;;;2.1;;
36833;SDS011;48003;52.084;5.224;2023-05-02T07:54:37;8.31;;;2.1;;
36833;SDS011;48003;52.084;5.224;2023-05-02T07:56:14;9.6;;;2.6;;
36833;SDS011;48003;52.084;5.224;2023-05-02T07:59:26;10.6;;;2.1;;
36833;SDS011;48003;52.084;5.224;2023-05-02T08:01:02;9.0;;;2.1;;
36833;SDS011;48003;52.084;5.224;2023-05-02T08:02:40;7.8;;;1.7;;
36833;SDS011;48003;52.084;5.224;2023-05-02T08:05:53;5.8;;;1.8;;
36833;SDS011;48003;52.084;5.224;2023-05-02T08:07:30;11.4;;;2.21;;
36833;SDS011;48003;52.084;5.224;2023-05-02T08:09:07;8.31;;;1.9;;
36833;SDS011;48003;52.084;5.224;2023-05-02T08:12:19;9.21;;;2.0;;
36833;SDS011;48003;52.084;5.224;2023-05-02T08:13:55;7.4;;;2.0;;
36833;SDS011;48003;52.084;5.224;2023-05-02T08:15:32;8.9;;;2.31;;
36833;SDS011;48003;52.084;5.224;2023-05-02T08:17:08;8.9;;;2.31;;
36833;SDS011;48003;52.084;5.224;2023-05-02T08:20:20;7.5;;;1.8;;
36833;SDS011;48003;52.084;5.224;2023-05-02T08:21:57;7.4;;;1.9;;
36833;SDS011;48003;52.084;5.224;2023-05-02T08:23:34;7.4;;;1.9;;
36833;SDS011;48003;52.084;5.224;2023-05-02T08:26:45;7.8;;;2.0;;
36833;SDS011;48003;52.084;5.224;2023-05-02T08:28:21;12.0;;;2.31;;
36833;SDS011;48003;52.084;5.224;2023-05-02T08:29:57;8.31;;;2.31;;
36833;SDS011;48003;52.084;5.224;2023-05-02T08:33:10;11.4;;;2.21;;
36833;SDS011;48003;52.084;5.224;2023-05-02T08:34:46;8.81;;;2.1;;
36833;SDS011;48003;52.084;5.224;2023-05-02T08:36:22;9.31;;;1.6;;
36833;SDS011;48003;52.084;5.224;2023-05-02T08:39:35;6.9;;;1.9;;
36833;SDS011;48003;52.084;5.224;2023-05-02T08:41:12;6.9;;;1.7;;
36833;SDS011;48003;52.084;5.224;2023-05-02T08:42:49;5.5;;;1.5;;
36833;SDS011;48003;52.084;5.224;2023-05-02T08:44:27;8.81;;;1.8;;
36833;SDS011;48003;52.084;5.224;2023-05-02T08:47:40;6.5;;;1.8;;
36833;SDS011;48003;52.084;5.224;2023-05-02T08:49:17;6.4;;;1.8;;
36833;SDS011;48003;52.084;5.224;2023-05-02T08:50:55;7.8;;;1.8;;
36833;SDS011;48003;52.084;5.224;2023-05-02T08:54:11;6.8;;;1.5;;
36833;SDS011;48003;52.084;5.224;2023-05-02T08:55:52;6.3;;;1.3;;
36833;SDS011;48003;52.084;5.224;2023-05-02T08:57:28;8.31;;;3.1;;
36833;SDS011;48003;52.084;5.224;2023-05-02T08:59:05;6.9;;;2.6;;
36833;SDS011;48003;52.084;5.224;2023-05-02T09:02:23;5.0;;;1.3;;
36833;SDS011;48003;52.084;5.224;2023-05-02T09:04:27;7.1;;;1.7;;
36833;SDS011;48003;52.084;5.224;2023-05-02T09:06:09;4.7;;;1.5;;
36833;SDS011;48003;52.084;5.224;2023-05-02T09:07:47;5.3;;;1.4;;
36833;SDS011;48003;52.084;5.224;2023-05-02T09:09:26;8.1;;;1.6;;
36833;SDS011;48003;52.084;5.224;2023-05-02T09:12:39;6.0;;;1.2;;
36833;SDS011;48003;52.084;5.224;2023-05-02T09:14:16;4.91;;;1.5;;
36833;SDS011;48003;52.084;5.224;2023-05-02T09:15:55;5.9;;;1.5;;
36833;SDS011;48003;52.084;5.224;2023-05-02T09:19:22;6.0;;;1.9;;
36833;SDS011;48003;52.084;5.224;2023-05-02T09:21:03;9.6;;;2.31;;
36833;SDS011;48003;52.084;5.224;2023-05-02T09:22:46;10.3;;;2.0;;
36833;SDS011;48003;52.084;5.224;2023-05-02T09:24:23;6.7;;;1.4;;
36833;SDS011;48003;52.084;5.224;2023-05-02T09:27:53;8.4;;;1.4;;
36833;SDS011;48003;52.084;5.224;2023-05-02T09:29:31;5.11;;;1.4;;
36833;SDS011;48003;52.084;5.224;2023-05-02T09:31:09;5.6;;;1.3;;
36833;SDS011;48003;52.084;5.224;2023-05-02T09:32:48;5.0;;;1.4;;
36833;SDS011;48003;52.084;5.224;2023-05-02T09:36:01;4.2;;;1.2;;
36833;SDS011;48003;52.084;5.224;2023-05-02T09:37:38;5.5;;;1.3;;
36833;SDS011;48003;52.084;5.224;2023-05-02T09:39:15;3.9;;;1.11;;
36833;SDS011;48003;52.084;5.224;2023-05-02T09:40:56;6.7;;;1.6;;
36833;SDS011;48003;52.084;5.224;2023-05-02T09:44:09;6.8;;;1.5;;
36833;SDS011;48003;52.084;5.224;2023-05-02T09:45:54;9.5;;;1.6;;
36833;SDS011;48003;52.084;5.224;2023-05-02T09:47:32;6.1;;;1.6;;
36833;SDS011;48003;52.084;5.224;2023-05-02T09:49:08;10.8;;;1.5;;
36833;SDS011;48003;52.084;5.224;2023-05-02T09:52:20;4.0;;;1.2;;
36833;SDS011;48003;52.084;5.224;2023-05-02T09:53:56;5.2;;;1.6;;
36833;SDS011;48003;52.084;5.224;2023-05-02T09:55:32;6.7;;;1.8;;
36833;SDS011;48003;52.084;5.224;2023-05-02T09:58:45;4.2;;;1.4;;
36833;SDS011;48003;52.084;5.224;2023-05-02T10:00:21;6.6;;;1.6;;
36833;SDS011;48003;52.084;5.224;2023-05-02T10:01:59;6.6;;;1.6;;
36833;SDS011;48003;52.084;5.224;2023-05-02T10:05:15;4.91;;;1.5;;
36833;SDS011;48003;52.084;5.224;2023-05-02T10:06:54;4.61;;;1.3;;
36833;SDS011;48003;52.084;5.224;2023-05-02T10:08:32;6.7;;;1.4;;
36833;SDS011;48003;52.084;5.224;2023-05-02T10:10:08;5.7;;;1.4;;
36833;SDS011;48003;52.084;5.224;2023-05-02T10:13:28;5.3;;;2.1;;
36833;SDS011;48003;52.084;5.224;2023-05-02T10:15:08;7.6;;;2.9;;
36833;SDS011;48003;52.084;5.224;2023-05-02T10:16:51;5.4;;;1.7;;
36833;SDS011;48003;52.084;5.224;2023-05-02T10:18:38;5.2;;;1.5;;
36833;SDS011;48003;52.084;5.224;2023-05-02T10:22:00;8.0;;;1.8;;
36833;SDS011;48003;52.084;5.224;2023-05-02T10:23:40;4.2;;;1.5;;
36833;SDS011;48003;52.084;5.224;2023-05-02T10:25:18;5.4;;;1.3;;
36833;SDS011;48003;52.084;5.224;2023-05-02T10:26:55;6.3;;;1.8;;
36833;SDS011;48003;52.084;5.224;2023-05-02T10:30:08;4.8;;;1.4;;
36833;SDS011;48003;52.084;5.224;2023-05-02T10:31:47;4.61;;;1.5;;
36833;SDS011;48003;52.084;5.224;2023-05-02T10:33:24;6.7;;;1.6;;
36833;SDS011;48003;52.084;5.224;2023-05-02T10:36:40;5.0;;;1.5;;
36833;SDS011;48003;52.084;5.224;2023-05-02T10:38:18;5.2;;;1.8;;
36833;SDS011;48003;52.084;5.224;2023-05-02T10:39:55;6.3;;;1.7;;
36833;SDS011;48003;52.084;5.224;2023-05-02T10:41:32;4.3;;;1.6;;
36833;SDS011;48003;52.084;5.224;2023-05-02T10:44:50;6.9;;;1.6;;
36833;SDS011;48003;52.084;5.224;2023-05-02T10:46:29;5.6;;;2.0;;
36833;SDS011;48003;52.084;5.224;2023-05-02T10:48:15;4.0;;;1.6;;
36833;SDS011;48003;52.084;5.224;2023-05-02T10:49:53;5.3;;;1.5;;
36833;SDS011;48003;52.084;5.224;2023-05-02T10:53:20;8.6;;;2.21;;
36833;SDS011;48003;52.084;5.224;2023-05-02T10:55:14;4.7;;;1.9;;
36833;SDS011;48003;52.084;5.224;2023-05-02T10:57:00;6.9;;;2.0;;
36833;SDS011;48003;52.084;5.224;2023-05-02T10:58:41;3.9;;;1.6;;
36833;SDS011;48003;52.084;5.224;2023-05-02T11:00:20;5.6;;;1.8;;
36833;SDS011;48003;52.084;5.224;2023-05-02T11:04:05;5.11;;;1.9;;
36833;SDS011;48003;52.084;5.224;2023-05-02T11:06:16;6.7;;;1.8;;
36833;SDS011;48003;52.084;5.224;2023-05-02T11:08:29;8.4;;;1.6;;
36833;SDS011;48003;52.084;5.224;2023-05-02T11:10:37;5.5;;;1.5;;
36833;SDS011;48003;52.084;5.224;2023-05-02T11:12:41;5.7;;;2.0;;
36833;SDS011;48003;52.084;5.224;2023-05-02T11:14:40;6.7;;;1.8;;
36833;SDS011;48003;52.084;5.224;2023-05-02T11:16:19;7.1;;;1.8;;
36833;SDS011;48003;52.084;5.224;2023-05-02T11:17:58;5.8;;;1.6;;
36833;SDS011;48003;52.084;5.224;2023-05-02T11:22:29;4.5;;;1.5;;
36833;SDS011;48003;52.084;5.224;2023-05-02T11:24:38;4.7;;;1.7;;
36833;SDS011;48003;52.084;5.224;2023-05-02T11:26:19;4.1;;;1.7;;
36833;SDS011;48003;52.084;5.224;2023-05-02T11:27:59;4.1;;;1.6;;
36833;SDS011;48003;52.084;5.224;2023-05-02T11:29:51;6.5;;;1.9;;
36833;SDS011;48003;52.084;5.224;2023-05-02T11:33:36;5.0;;;1.8;;
36833;SDS011;48003;52.084;5.224;2023-05-02T11:35:14;5.4;;;1.6;;
36833;SDS011;48003;52.084;5.224;2023-05-02T11:36:52;7.4;;;1.8;;
36833;SDS011;48003;52.084;5.224;2023-05-02T11:38:34;6.3;;;1.6;;
36833;SDS011;48003;52.084;5.224;2023-05-02T11:40:12;4.91;;;2.0;;
36833;SDS011;48003;52.084;5.224;2023-05-02T11:43:27;4.91;;;2.0;;
36833;SDS011;48003;52.084;5.224;2023-05-02T11:45:04;3.6;;;1.6;;
36833;SDS011;48003;52.084;5.224;2023-05-02T11:46:40;4.2;;;1.5;;
36833;SDS011;48003;52.084;5.224;2023-05-02T11:49:57;5.11;;;1.6;;
36833;SDS011;48003;52.084;5.224;2023-05-02T11:51:33;6.4;;;2.1;;
36833;SDS011;48003;52.084;5.224;2023-05-02T11:53:10;6.2;;;1.9;;
36833;SDS011;48003;52.084;5.224;2023-05-02T11:58:00;4.7;;;1.8;;
36833;SDS011;48003;52.084;5.224;2023-05-02T11:59:47;5.9;;;2.1;;
36833;SDS011;48003;52.084;5.224;2023-05-02T12:01:24;6.1;;;2.0;;
36833;SDS011;48003;52.084;5.224;2023-05-02T12:03:00;7.2;;;2.0;;
36833;SDS011;48003;52.084;5.224;2023-05-02T12:06:18;7.0;;;2.1;;
36833;SDS011;48003;52.084;5.224;2023-05-02T12:07:54;6.2;;;1.8;;
36833;SDS011;48003;52.084;5.224;2023-05-02T12:09:30;5.3;;;2.1;;
36833;SDS011;48003;52.084;5.224;2023-05-02T12:12:43;5.9;;;2.0;;
36833;SDS011;48003;52.084;5.224;2023-05-02T12:14:27;6.2;;;2.0;;
36833;SDS011;48003;52.084;5.224;2023-05-02T12:16:04;5.5;;;2.0;;
36833;SDS011;48003;52.084;5.224;2023-05-02T12:17:42;8.6;;;2.9;;
36833;SDS011;48003;52.084;5.224;2023-05-02T12:20:59;8.5;;;2.6;;
36833;SDS011;48003;52.084;5.224;2023-05-02T12:22:35;10.6;;;2.4;;
36833;SDS011;48003;52.084;5.224;2023-05-02T12:24:13;6.3;;;2.0;;
36833;SDS011;48003;52.084;5.224;2023-05-02T12:27:26;8.1;;;2.4;;
36833;SDS011;48003;52.084;5.224;2023-05-02T12:29:03;7.2;;;2.4;;
36833;SDS011;48003;52.084;5.224;2023-05-02T12:30:39;8.2;;;2.6;;
36833;SDS011;48003;52.084;5.224;2023-05-02T12:34:03;8.2;;;2.6;;
36833;SDS011;48003;52.084;5.224;2023-05-02T12:35:40;6.5;;;2.5;;
36833;SDS011;48003;52.084;5.224;2023-05-02T12:37:20;6.8;;;2.31;;
36833;SDS011;48003;52.084;5.224;2023-05-02T12:38:58;6.5;;;2.21;;
36833;SDS011;48003;52.084;5.224;2023-05-02T12:42:12;7.8;;;2.31;;
36833;SDS011;48003;52.084;5.224;2023-05-02T12:43:49;9.5;;;2.6;;
36833;SDS011;48003;52.084;5.224;2023-05-02T12:45:26;7.1;;;2.1;;
36833;SDS011;48003;52.084;5.224;2023-05-02T12:47:02;7.2;;;2.1;;
36833;SDS011;48003;52.084;5.224;2023-05-02T12:50:14;8.4;;;2.31;;
36833;SDS011;48003;52.084;5.224;2023-05-02T12:51:52;6.0;;;1.9;;
36833;SDS011;48003;52.084;5.224;2023-05-02T12:53:44;6.0;;;2.0;;
36833;SDS011;48003;52.084;5.224;2023-05-02T12:55:20;5.9;;;2.1;;
36833;SDS011;48003;52.084;5.224;2023-05-02T12:58:42;7.2;;;2.6;;
36833;SDS011;48003;52.084;5.224;2023-05-02T13:00:20;5.2;;;2.1;;
36833;SDS011;48003;52.084;5.224;2023-05-02T13:01:56;7.3;;;2.21;;
36833;SDS011;48003;52.084;5.224;2023-05-02T13:05:13;6.5;;;2.4;;